Time;durP1;ratioP1;P1;durP2;ratioP2;P2;SDS_P1;SDS_P2;PMS_P1;PMS_P2;Temp;Humidity;BMP_temperature;BMP_pressure;BME280_temperature;BME280_humidity;BME280_pressure;Samples;Min_cycle;Max_cycle;Signal;HPM_P1;HPM_P2
2022/05/09 00:00:28;;;;;;;2.75;0.80;;;5.80;99.90;;;;;;4790781;29;20134;-88
2022/05/09 00:02:54;;;;;;;2.28;0.82;;;5.40;99.90;;;;;;4810092;29;20135;-87
2022/05/09 00:05:24;;;;;;;2.45;0.80;;;5.60;99.90;;;;;;4791999;29;20455;-87
2022/05/09 00:07:50;;;;;;;3.30;0.88;;;6.10;99.90;;;;;;4811237;29;20129;-87
2022/05/09 00:10:18;;;;;;;4.60;1.10;;;5.40;99.90;;;;;;4795864;29;20054;-87
2022/05/09 00:12:44;;;;;;;1.92;0.80;;;5.30;99.90;;;;;;4789383;29;20131;-88
2022/05/09 00:15:11;;;;;;;4.88;0.88;;;6.20;99.90;;;;;;4789153;29;20501;-87
2022/05/09 00:17:37;;;;;;;5.57;1.20;;;6.10;99.90;;;;;;4805866;29;20053;-87
2022/05/09 00:20:05;;;;;;;3.25;0.90;;;6.30;99.90;;;;;;4805814;29;20086;-87
2022/05/09 00:22:30;;;;;;;4.85;1.33;;;5.30;99.90;;;;;;4789030;29;20145;-87
2022/05/09 00:25:00;;;;;;;3.20;0.90;;;5.60;99.90;;;;;;4773550;29;20135;-87
2022/05/09 00:27:25;;;;;;;3.22;0.98;;;4.80;99.90;;;;;;4805357;29;20051;-87
2022/05/09 00:29:51;;;;;;;5.32;1.00;;;4.60;99.90;;;;;;4805264;29;20522;-88
2022/05/09 00:32:17;;;;;;;4.65;1.05;;;6.30;99.90;;;;;;4781520;29;20089;-88
2022/05/09 00:34:43;;;;;;;4.65;1.10;;;5.50;99.90;;;;;;4788656;29;20146;-88
2022/05/09 00:37:08;;;;;;;2.35;0.88;;;5.90;99.90;;;;;;4805276;29;20047;-88
2022/05/09 00:39:34;;;;;;;4.82;1.00;;;6.30;99.90;;;;;;4789731;29;20093;-86
2022/05/09 00:42:12;;;;;;;3.20;1.10;;;5.10;99.90;;;;;;4789614;29;20070;-88
2022/05/09 00:44:38;;;;;;;2.10;0.90;;;5.20;99.90;;;;;;4804764;29;20560;-87
2022/05/09 00:47:04;;;;;;;2.92;0.88;;;5.80;99.90;;;;;;4797429;29;20111;-87
2022/05/09 00:49:49;;;;;;;7.18;1.00;;;5.20;99.90;;;;;;4789169;29;20067;-88
2022/05/09 00:52:29;;;;;;;4.18;1.10;;;5.20;99.90;;;;;;4794595;29;20531;-88
2022/05/09 00:55:00;;;;;;;3.60;1.05;;;5.20;99.90;;;;;;4796121;29;20091;-88
2022/05/09 00:57:34;;;;;;;3.38;0.90;;;5.20;99.90;;;;;;4794369;29;20058;-87
2022/05/09 01:00:07;;;;;;;4.75;1.08;;;6.30;99.90;;;;;;4805313;29;20417;-88
2022/05/09 01:02:34;;;;;;;1.83;0.88;;;5.20;99.90;;;;;;4795856;29;20082;-87
2022/05/09 01:05:02;;;;;;;7.22;1.10;;;5.50;99.90;;;;;;4796039;29;20118;-88
2022/05/09 01:07:30;;;;;;;4.25;1.27;;;5.10;99.90;;;;;;4804608;29;20079;-87
2022/05/09 01:09:57;;;;;;;6.72;1.25;;;5.40;99.90;;;;;;4788629;29;20090;-87
2022/05/09 01:12:32;;;;;;;4.40;1.30;;;5.20;99.90;;;;;;4795227;29;20055;-87
2022/05/09 01:15:05;;;;;;;2.95;1.20;;;6.30;99.90;;;;;;4804613;29;20120;-86
2022/05/09 01:17:31;;;;;;;3.35;1.10;;;5.10;99.90;;;;;;4785638;29;20061;-87
2022/05/09 01:20:00;;;;;;;3.78;1.40;;;5.10;99.90;;;;;;4820223;29;20056;-86
2022/05/09 01:22:35;;;;;;;2.80;0.88;;;5.30;99.90;;;;;;4792878;29;20527;-87
2022/05/09 01:25:04;;;;;;;4.40;1.17;;;5.10;99.90;;;;;;4791660;29;20067;-87
2022/05/09 01:27:31;;;;;;;4.40;1.20;;;5.10;99.90;;;;;;4807751;29;20063;-87
2022/05/09 01:30:08;;;;;;;2.58;0.80;;;6.10;99.90;;;;;;4773755;29;20062;-87
2022/05/09 01:32:45;;;;;;;3.50;0.82;;;5.00;99.90;;;;;;4796312;29;20123;-87
2022/05/09 01:35:13;;;;;;;3.50;1.00;;;5.60;99.90;;;;;;4790013;29;20116;-88
2022/05/09 01:37:42;;;;;;;1.75;0.85;;;5.00;99.90;;;;;;4791395;29;20081;-86
2022/05/09 01:40:08;;;;;;;2.22;0.80;;;4.40;99.90;;;;;;4792227;29;20522;-88
2022/05/09 01:42:40;;;;;;;2.70;0.93;;;4.90;99.90;;;;;;4807813;29;20090;-87
2022/05/09 01:45:07;;;;;;;3.65;0.95;;;5.80;99.90;;;;;;4812921;29;20073;-87
2022/05/09 01:50:17;;;;;;;2.40;0.90;;;5.10;99.90;;;;;;4808311;29;20446;-87
2022/05/09 01:52:44;;;;;;;1.42;0.52;;;4.80;99.90;;;;;;4791566;29;20100;-87
2022/05/09 01:55:10;;;;;;;3.42;0.80;;;4.10;99.90;;;;;;4792287;29;20058;-87
2022/05/09 01:57:36;;;;;;;5.97;0.70;;;3.50;99.90;;;;;;4791658;29;20118;-87
2022/05/09 02:00:07;;;;;;;2.30;0.90;;;5.20;99.90;;;;;;4798212;29;20063;-86
2022/05/09 02:02:33;;;;;;;2.22;0.90;;;4.70;99.90;;;;;;4807831;29;20047;-86
2022/05/09 02:05:00;;;;;;;3.75;0.80;;;4.20;99.90;;;;;;4807391;29;20429;-87
2022/05/09 02:07:26;;;;;;;2.20;0.90;;;5.40;99.90;;;;;;4808355;29;20501;-87
2022/05/09 02:09:53;;;;;;;1.65;0.65;;;5.50;99.90;;;;;;4807984;29;20058;-87
2022/05/09 02:12:19;;;;;;;3.17;0.55;;;3.90;99.90;;;;;;4800439;29;20188;-87
2022/05/09 02:14:46;;;;;;;1.73;1.02;;;5.10;99.90;;;;;;4791718;29;20089;-87
2022/05/09 02:17:13;;;;;;;2.85;0.70;;;4.50;99.90;;;;;;4814108;29;20616;-87
2022/05/09 02:19:40;;;;;;;3.50;0.70;;;5.40;99.90;;;;;;4807171;29;20062;-88
2022/05/09 02:22:08;;;;;;;3.75;0.60;;;5.50;99.90;;;;;;4814629;29;20054;-87
2022/05/09 02:24:34;;;;;;;3.05;0.82;;;5.40;99.90;;;;;;4807548;29;20058;-87
2022/05/09 02:27:03;;;;;;;3.38;0.70;;;5.10;99.90;;;;;;4807715;29;20141;-87
2022/05/09 02:29:31;;;;;;;1.63;0.52;;;4.40;99.90;;;;;;4807057;29;20058;-88
2022/05/09 02:31:57;;;;;;;1.65;0.60;;;5.40;99.90;;;;;;4807701;29;20059;-88
2022/05/09 02:34:24;;;;;;;1.98;0.55;;;5.40;99.90;;;;;;4807721;29;20054;-88
2022/05/09 02:36:49;;;;;;;3.63;0.68;;;4.50;99.90;;;;;;4807346;29;20394;-87
2022/05/09 02:39:16;;;;;;;1.17;0.68;;;4.30;99.90;;;;;;4791392;29;20138;-87
2022/05/09 02:41:42;;;;;;;2.58;0.70;;;4.50;99.90;;;;;;4790410;29;20150;-87
2022/05/09 02:44:07;;;;;;;1.92;0.60;;;4.80;99.90;;;;;;4791424;29;20085;-87
2022/05/09 02:46:34;;;;;;;0.90;0.50;;;4.90;99.90;;;;;;4806779;29;20481;-88
2022/05/09 02:49:02;;;;;;;0.52;0.45;;;4.80;99.90;;;;;;4806942;29;20053;-87
2022/05/09 02:51:29;;;;;;;0.60;0.40;;;3.10;99.90;;;;;;4811814;29;20050;-88
2022/05/09 02:53:58;;;;;;;0.43;0.40;;;3.70;99.90;;;;;;4790680;29;20071;-88
2022/05/09 02:56:25;;;;;;;1.10;0.57;;;4.70;99.90;;;;;;4790885;29;20063;-88
2022/05/09 02:58:51;;;;;;;0.85;0.50;;;4.10;99.90;;;;;;4797538;29;20059;-87
2022/05/09 03:01:16;;;;;;;0.70;0.50;;;3.90;99.90;;;;;;4806943;29;20412;-88
2022/05/09 03:06:27;;;;;;;1.15;0.45;;;3.30;99.90;;;;;;4806727;29;20131;-88
2022/05/09 03:08:53;;;;;;;0.93;0.52;;;4.50;99.90;;;;;;4806685;29;20138;-88
2022/05/09 03:11:18;;;;;;;1.13;0.50;;;4.90;99.90;;;;;;4807512;29;20076;-88
2022/05/09 03:13:44;;;;;;;0.65;0.40;;;3.80;99.90;;;;;;4790245;29;20054;-88
2022/05/09 03:16:10;;;;;;;2.67;0.60;;;3.50;99.90;;;;;;4806528;29;20524;-89
2022/05/09 03:18:36;;;;;;;1.40;0.50;;;3.70;99.90;;;;;;4807169;29;20087;-88
2022/05/09 03:21:03;;;;;;;1.70;0.57;;;3.60;99.90;;;;;;4797860;29;20061;-88
2022/05/09 03:23:29;;;;;;;2.97;1.02;;;4.00;99.90;;;;;;4784458;29;20047;-88
2022/05/09 03:25:55;;;;;;;1.27;0.60;;;3.50;99.90;;;;;;4792300;29;20068;-89
2022/05/09 03:28:25;;;;;;;1.40;0.70;;;4.10;99.90;;;;;;4791902;29;20161;-87
2022/05/09 03:30:53;;;;;;;0.77;0.60;;;3.80;99.90;;;;;;4806597;29;20051;-88
2022/05/09 03:33:24;;;;;;;1.20;0.70;;;3.40;99.90;;;;;;4798366;29;20474;-87
2022/05/09 03:35:52;;;;;;;1.85;0.63;;;4.40;99.90;;;;;;4797490;29;20120;-86
2022/05/09 03:38:20;;;;;;;1.15;0.50;;;4.20;99.90;;;;;;4789924;29;20054;-87
2022/05/09 03:40:46;;;;;;;1.20;0.60;;;4.20;99.90;;;;;;4786536;29;20137;-87
2022/05/09 03:43:12;;;;;;;0.52;0.40;;;3.20;99.90;;;;;;4813248;29;20126;-86
2022/05/09 03:45:41;;;;;;;0.73;0.50;;;3.40;99.90;;;;;;4792538;29;20094;-86
2022/05/09 03:48:08;;;;;;;1.48;0.52;;;4.40;99.90;;;;;;4791903;29;20062;-87
2022/05/09 03:50:33;;;;;;;1.13;0.60;;;3.50;99.90;;;;;;4814219;29;20057;-87
2022/05/09 03:52:59;;;;;;;0.55;0.50;;;4.10;99.90;;;;;;4814713;29;20055;-87
2022/05/09 03:55:25;;;;;;;3.65;0.88;;;3.20;99.90;;;;;;4813357;29;20054;-87
2022/05/09 03:57:53;;;;;;;0.73;0.55;;;4.40;99.90;;;;;;4790682;29;20547;-86
2022/05/09 04:00:24;;;;;;;1.25;0.45;;;5.10;99.90;;;;;;4813628;29;20057;-87
2022/05/09 04:02:49;;;;;;;1.42;0.45;;;3.50;99.90;;;;;;4790554;29;20151;-87
2022/05/09 04:05:17;;;;;;;0.80;0.40;;;3.50;99.90;;;;;;4805730;29;20133;-87
2022/05/09 04:07:50;;;;;;;0.50;0.50;;;3.50;99.90;;;;;;4805998;29;20054;-87
2022/05/09 04:10:21;;;;;;;0.80;0.40;;;3.60;99.90;;;;;;4782716;29;20054;-87
2022/05/09 04:12:47;;;;;;;1.65;0.50;;;3.60;99.90;;;;;;4812511;29;20111;-86
2022/05/09 04:17:58;;;;;;;0.20;0.20;;;3.50;99.90;;;;;;4792015;29;20067;-87
2022/05/09 04:20:25;;;;;;;1.10;0.40;;;4.40;99.90;;;;;;4774106;29;20054;-88
2022/05/09 04:22:54;;;;;;;0.75;0.35;;;2.70;99.90;;;;;;4789601;29;20166;-87
2022/05/09 04:25:22;;;;;;;0.50;0.40;;;3.80;99.90;;;;;;4806176;29;20062;-87
2022/05/09 04:27:47;;;;;;;0.75;0.50;;;3.80;99.90;;;;;;4774438;29;20059;-87
2022/05/09 04:30:13;;;;;;;1.48;0.50;;;3.00;99.90;;;;;;4788654;29;20130;-86
2022/05/09 04:32:40;;;;;;;4.43;1.23;;;3.90;99.90;;;;;;4796440;29;20055;-86
2022/05/09 04:35:13;;;;;;;1.67;0.60;;;3.90;99.90;;;;;;4805992;29;20050;-87
2022/05/09 04:37:42;;;;;;;6.20;1.17;;;4.00;99.90;;;;;;4789845;29;20054;-86
2022/05/09 04:40:09;;;;;;;1.83;0.93;;;4.90;99.90;;;;;;4789023;29;20051;-86
2022/05/09 04:42:34;;;;;;;0.75;0.50;;;4.10;99.90;;;;;;4788931;29;20143;-86
2022/05/09 04:45:00;;;;;;;0.82;0.70;;;4.00;99.90;;;;;;4788848;29;20078;-87
2022/05/09 04:47:27;;;;;;;0.90;0.50;;;3.40;99.90;;;;;;4811965;29;20053;-86
2022/05/09 04:49:52;;;;;;;1.27;0.70;;;4.40;99.90;;;;;;4788239;29;20054;-86
2022/05/09 04:52:18;;;;;;;1.05;0.52;;;4.80;99.90;;;;;;4781512;29;20508;-86
2022/05/09 04:54:44;;;;;;;0.47;0.40;;;4.00;99.90;;;;;;4805015;29;20055;-86
2022/05/09 04:57:10;;;;;;;0.65;0.50;;;4.70;99.90;;;;;;4805226;29;20372;-87
2022/05/09 04:59:35;;;;;;;0.70;0.40;;;4.00;99.90;;;;;;4804994;29;20053;-86
2022/05/09 05:02:01;;;;;;;0.60;0.52;;;4.00;99.90;;;;;;4807704;29;20130;-86
2022/05/09 05:04:27;;;;;;;1.45;0.57;;;4.50;99.90;;;;;;4798762;29;20133;-86
2022/05/09 05:06:52;;;;;;;2.25;0.70;;;4.10;99.90;;;;;;4806544;29;20057;-86
2022/05/09 05:09:18;;;;;;;1.77;0.70;;;5.00;99.90;;;;;;4805212;29;20082;-86
2022/05/09 05:11:44;;;;;;;2.55;1.00;;;4.30;99.90;;;;;;4778123;29;20133;-87
2022/05/09 05:14:09;;;;;;;2.88;1.13;;;5.40;99.90;;;;;;4799059;29;20103;-86
2022/05/09 05:19:19;;;;;;;1.63;0.93;;;5.30;99.90;;;;;;4802352;29;20057;-87
2022/05/09 05:21:45;;;;;;;3.08;0.70;;;5.10;99.90;;;;;;4808665;29;20059;-86
2022/05/09 05:24:11;;;;;;;2.10;0.80;;;4.90;99.90;;;;;;4777366;29;20070;-86
2022/05/09 05:26:37;;;;;;;1.17;0.77;;;5.40;99.90;;;;;;4809146;29;20114;-88
2022/05/09 05:29:02;;;;;;;3.55;0.60;;;4.70;99.90;;;;;;4815761;29;20055;-87
2022/05/09 05:31:28;;;;;;;1.15;0.60;;;5.80;99.90;;;;;;4808414;29;20070;-86
2022/05/09 05:33:55;;;;;;;0.68;0.40;;;5.10;99.90;;;;;;4792803;29;20127;-86
2022/05/09 05:36:21;;;;;;;2.35;0.50;;;5.00;99.90;;;;;;4799149;29;20269;-89
2022/05/09 05:38:51;;;;;;;0.88;0.57;;;5.20;99.90;;;;;;4808518;29;20046;-87
2022/05/09 05:41:20;;;;;;;1.10;0.60;;;5.70;99.90;;;;;;4798837;29;20050;-87
2022/05/09 05:43:46;;;;;;;0.93;0.68;;;6.10;99.90;;;;;;4792143;29;20069;-87
2022/05/09 05:46:13;;;;;;;1.13;0.60;;;5.80;99.90;;;;;;4808094;29;20201;-86
2022/05/09 05:48:40;;;;;;;2.35;0.70;;;6.60;99.90;;;;;;4797577;29;20065;-88
2022/05/09 05:51:05;;;;;;;2.20;0.90;;;6.10;99.90;;;;;;4815357;29;20062;-86
2022/05/09 05:53:34;;;;;;;1.00;0.50;;;6.50;99.90;;;;;;4808557;29;20063;-87
2022/05/09 05:56:00;;;;;;;3.50;0.57;;;7.10;99.90;;;;;;4777531;29;20050;-85
2022/05/09 05:58:27;;;;;;;2.15;0.80;;;7.10;99.90;;;;;;4808504;29;20519;-86
2022/05/09 06:00:53;;;;;;;1.58;0.65;;;6.90;99.90;;;;;;4808348;29;20541;-85
2022/05/09 06:03:20;;;;;;;2.58;0.70;;;7.70;99.90;;;;;;4792408;29;20105;-86
2022/05/09 06:05:46;;;;;;;1.30;0.60;;;7.80;99.90;;;;;;4792137;29;20583;-86
2022/05/09 06:08:12;;;;;;;3.45;1.00;;;8.30;99.90;;;;;;4812757;29;20065;-86
2022/05/09 06:10:38;;;;;;;5.20;1.15;;;7.80;99.90;;;;;;4812635;29;20419;-86
2022/05/09 06:13:05;;;;;;;1.48;0.80;;;8.50;99.90;;;;;;4808086;29;20556;-87
2022/05/09 06:15:32;;;;;;;2.35;0.70;;;8.10;99.90;;;;;;4791877;29;20059;-87
2022/05/09 06:18:00;;;;;;;1.55;0.80;;;8.30;99.90;;;;;;4808433;29;20059;-86
2022/05/09 06:20:31;;;;;;;1.33;0.70;;;9.10;99.90;;;;;;4792104;29;20066;-87
2022/05/09 06:22:59;;;;;;;2.78;0.80;;;9.00;99.90;;;;;;4791502;29;20089;-86
2022/05/09 06:25:26;;;;;;;2.40;0.80;;;9.00;99.90;;;;;;4792270;29;20504;-87
2022/05/09 06:27:52;;;;;;;2.67;0.60;;;9.20;99.90;;;;;;4807995;29;20058;-86
2022/05/09 06:30:20;;;;;;;2.90;1.02;;;9.50;99.90;;;;;;4791391;29;20496;-88
2022/05/09 06:32:46;;;;;;;7.22;2.38;;;9.60;99.90;;;;;;4791433;29;20094;-87
2022/05/09 06:35:21;;;;;;;5.85;1.27;;;10.30;99.90;;;;;;4791367;29;20090;-85
2022/05/09 06:37:54;;;;;;;4.60;1.20;;;10.00;99.90;;;;;;4807437;29;21623;-86
2022/05/09 06:40:20;;;;;;;3.30;1.70;;;10.20;99.90;;;;;;4807191;29;20361;-84
2022/05/09 06:42:50;;;;;;;5.05;2.10;;;10.60;99.90;;;;;;4811863;29;20054;-84
2022/05/09 06:45:17;;;;;;;4.18;1.23;;;10.50;99.90;;;;;;4816303;29;20063;-85
2022/05/09 06:47:51;;;;;;;3.08;1.42;;;10.70;99.90;;;;;;4807820;29;20154;-84
2022/05/09 06:50:19;;;;;;;1.40;0.70;;;10.90;99.90;;;;;;4807589;29;20082;-86
2022/05/09 06:52:45;;;;;;;7.10;1.10;;;11.10;99.90;;;;;;4807594;29;20069;-86
2022/05/09 06:55:12;;;;;;;3.33;0.80;;;11.30;99.90;;;;;;4807812;29;20126;-85
2022/05/09 06:57:42;;;;;;;5.45;1.05;;;11.40;99.90;;;;;;4807689;29;20063;-86
2022/05/09 07:00:17;;;;;;;6.97;1.58;;;11.60;99.90;;;;;;4794308;29;20046;-89
2022/05/09 07:02:43;;;;;;;4.20;1.70;;;11.70;99.90;;;;;;4809629;29;20497;-88
2022/05/09 07:05:11;;;;;;;4.15;1.17;;;11.90;99.90;;;;;;4806854;29;20061;-84
2022/05/09 07:07:37;;;;;;;6.63;0.82;;;12.10;99.90;;;;;;4790625;29;20090;-84
2022/05/09 07:10:04;;;;;;;5.22;0.85;;;12.20;99.90;;;;;;4790436;29;20059;-84
2022/05/09 07:12:30;;;;;;;6.07;0.90;;;12.50;99.90;;;;;;4806569;29;20051;-82
2022/05/09 07:14:57;;;;;;;3.97;1.40;;;12.70;99.90;;;;;;4806343;29;20115;-83
2022/05/09 07:17:22;;;;;;;2.95;1.00;;;12.80;99.90;;;;;;4806427;29;20057;-85
2022/05/09 07:19:48;;;;;;;6.15;1.25;;;12.90;99.90;;;;;;4814345;29;20055;-87
2022/05/09 07:22:14;;;;;;;7.45;1.95;;;13.10;99.90;;;;;;4796259;29;20043;-84
2022/05/09 07:24:43;;;;;;;4.18;1.02;;;13.30;99.90;;;;;;4790959;29;20046;-85
2022/05/09 07:27:08;;;;;;;5.53;1.25;;;13.50;99.90;;;;;;4807064;29;20187;-85
2022/05/09 07:29:34;;;;;;;4.05;1.30;;;14.00;99.90;;;;;;4790583;29;20575;-85
2022/05/09 07:32:00;;;;;;;3.55;1.02;;;13.90;99.90;;;;;;4794481;29;20055;-85
2022/05/09 07:34:26;;;;;;;4.25;1.20;;;14.10;99.90;;;;;;4790046;29;20133;-85
2022/05/09 07:36:51;;;;;;;4.20;1.13;;;14.30;99.90;;;;;;4796498;29;20151;-85
2022/05/09 07:39:17;;;;;;;6.93;1.48;;;14.40;99.90;;;;;;4789708;29;20155;-85
2022/05/09 07:41:43;;;;;;;8.43;2.30;;;14.50;99.90;;;;;;4790187;29;20067;-86
2022/05/09 07:44:09;;;;;;;5.20;1.58;;;14.80;99.90;;;;;;4789438;29;20518;-86
2022/05/09 07:46:35;;;;;;;4.70;1.13;;;15.00;99.90;;;;;;4789216;29;20115;-86
2022/05/09 07:49:01;;;;;;;3.75;1.05;;;15.10;99.90;;;;;;4806327;29;20468;-86
2022/05/09 07:51:27;;;;;;;3.47;1.17;;;15.20;99.90;;;;;;4806130;29;20082;-83
2022/05/09 07:53:53;;;;;;;5.28;1.23;;;15.30;99.90;;;;;;4805446;29;20408;-84
2022/05/09 07:56:19;;;;;;;6.68;1.35;;;15.50;99.90;;;;;;4789335;29;20063;-85
2022/05/09 07:58:47;;;;;;;5.72;1.20;;;15.70;99.90;;;;;;4805572;29;20066;-84
2022/05/09 08:01:13;;;;;;;5.40;1.00;;;15.80;99.90;;;;;;4805270;29;20062;-86
2022/05/09 08:03:39;;;;;;;4.53;1.00;;;16.00;99.90;;;;;;4805911;29;20055;-86
2022/05/09 08:06:05;;;;;;;3.83;1.65;;;16.20;99.90;;;;;;4789581;29;20142;-86
2022/05/09 08:08:36;;;;;;;4.03;1.60;;;16.30;99.90;;;;;;4805293;29;20065;-86
2022/05/09 08:11:05;;;;;;;6.15;1.30;;;16.40;99.90;;;;;;4790670;29;20162;-86
2022/05/09 08:13:34;;;;;;;4.68;1.50;;;16.40;99.90;;;;;;4790454;29;20055;-86
2022/05/09 08:19:41;;;;;;;6.68;1.35;;;16.80;99.90;;;;;;4806639;29;20484;-87
2022/05/09 08:22:09;;;;;;;6.82;1.38;;;17.10;99.90;;;;;;4812371;29;20110;-88
2022/05/09 08:24:35;;;;;;;4.00;1.35;;;17.00;99.90;;;;;;4805711;29;20191;-87
2022/05/09 08:27:01;;;;;;;2.92;1.10;;;17.20;99.90;;;;;;4774880;29;20153;-86
2022/05/09 08:29:27;;;;;;;3.72;1.00;;;17.40;99.90;;;;;;4805107;29;20047;-87
2022/05/09 08:31:52;;;;;;;3.85;1.10;;;17.50;99.90;;;;;;4789398;29;20051;-86
2022/05/09 08:34:18;;;;;;;9.27;1.58;;;17.80;99.90;;;;;;4789421;29;20098;-86
2022/05/09 08:36:48;;;;;;;4.25;1.13;;;17.90;99.90;;;;;;4795891;29;20058;-86
2022/05/09 08:39:16;;;;;;;9.52;2.33;;;18.00;99.90;;;;;;4805290;29;20055;-87
2022/05/09 08:42:03;;;;;;;12.48;1.50;;;18.10;99.90;;;;;;4781730;29;20061;-87
2022/05/09 08:44:54;;;;;;;2.67;1.08;;;18.20;99.90;;;;;;4787691;29;20512;-87
2022/05/09 08:47:35;;;;;;;4.25;1.02;;;18.30;99.90;;;;;;4812421;29;20054;-87
2022/05/09 08:50:21;;;;;;;10.65;1.20;;;18.50;99.90;;;;;;4799362;29;20051;-88
2022/05/09 08:53:09;;;;;;;6.63;1.63;;;18.60;99.90;;;;;;4811234;29;20067;-90
2022/05/09 08:55:41;;;;;;;6.47;1.13;;;18.60;97.20;;;;;;4807722;29;20134;-88
2022/05/09 08:58:19;;;;;;;5.05;1.00;;;18.60;99.90;;;;;;4812311;29;20051;-88
2022/05/09 09:00:50;;;;;;;4.13;0.90;;;18.80;99.90;;;;;;4793583;29;20513;-89
2022/05/09 09:03:26;;;;;;;4.55;1.30;;;19.00;99.80;;;;;;4805689;29;20135;-90
2022/05/09 09:05:54;;;;;;;4.30;1.00;;;19.20;99.50;;;;;;4788380;29;20066;-87
2022/05/09 09:08:58;;;;;;;4.20;1.23;;;19.40;92.90;;;;;;4817599;29;20559;-88
2022/05/09 09:11:50;;;;;;;4.57;1.58;;;19.60;97.00;;;;;;4791434;29;20216;-88
2022/05/09 09:14:25;;;;;;;3.13;0.70;;;19.90;93.70;;;;;;4783541;29;20564;-87
2022/05/09 09:17:06;;;;;;;3.10;0.70;;;20.00;89.90;;;;;;4805990;29;20505;-87
2022/05/09 09:19:50;;;;;;;3.30;0.80;;;20.20;76.40;;;;;;4788942;29;20166;-87
2022/05/09 09:22:30;;;;;;;3.25;0.70;;;20.60;85.00;;;;;;4799168;29;20054;-86
2022/05/09 09:25:37;;;;;;;4.00;0.70;;;20.50;83.80;;;;;;4777155;29;20058;-86
2022/05/09 09:28:08;;;;;;;4.03;0.93;;;20.70;77.30;;;;;;4804029;29;20059;-86
2022/05/09 09:30:36;;;;;;;3.83;0.70;;;20.90;79.20;;;;;;4805349;29;20058;-85
2022/05/09 09:33:05;;;;;;;3.00;0.85;;;21.00;76.60;;;;;;4811643;29;20055;-90
2022/05/09 09:35:37;;;;;;;5.95;1.00;;;21.10;76.60;;;;;;4788915;29;20451;-87
2022/05/09 09:38:31;;;;;;;5.72;0.80;;;21.00;72.00;;;;;;4804693;29;20129;-88
2022/05/09 09:41:23;;;;;;;7.63;1.23;;;21.20;75.70;;;;;;4793669;29;20071;-87
2022/05/09 09:43:53;;;;;;;3.08;0.98;;;21.10;72.60;;;;;;4805281;29;20121;-86
2022/05/09 09:50:29;;;;;;;2.50;0.80;;;21.50;76.30;;;;;;4803129;29;20049;-86
2022/05/09 09:52:58;;;;;;;8.63;1.42;;;21.60;67.50;;;;;;4731828;30;20076;-86
2022/05/09 09:55:35;;;;;;;2.95;0.95;;;21.70;72.00;;;;;;4720231;30;20060;-86
2022/05/09 09:58:21;;;;;;;5.70;0.95;;;21.90;65.30;;;;;;4752851;30;20052;-85
2022/05/09 10:01:08;;;;;;;7.43;1.05;;;21.90;75.30;;;;;;4752835;30;20476;-86
2022/05/09 10:03:37;;;;;;;5.10;0.93;;;21.90;69.80;;;;;;4738063;30;20064;-86
2022/05/09 10:06:11;;;;;;;5.05;1.00;;;22.10;72.10;;;;;;4752602;30;20060;-86
2022/05/09 10:08:38;;;;;;;3.17;0.80;;;22.30;69.00;;;;;;4737883;30;20052;-87
2022/05/09 10:11:04;;;;;;;7.43;1.08;;;22.20;64.90;;;;;;4723232;30;20164;-86
2022/05/09 10:13:42;;;;;;;3.33;0.70;;;22.00;65.70;;;;;;4737717;30;20111;-86
2022/05/09 10:16:22;;;;;;;2.58;0.70;;;22.30;64.60;;;;;;4752453;30;20060;-87
2022/05/09 10:18:50;;;;;;;5.03;0.60;;;22.40;62.20;;;;;;4737831;30;20052;-86
2022/05/09 10:27:14;;;;;;;5.10;0.60;;;22.70;62.60;;;;;;4752355;30;20137;-86
2022/05/09 10:29:40;;;;;;;1.35;0.60;;;22.90;58.90;;;;;;4773376;29;20138;-86
2022/05/09 10:32:11;;;;;;;2.97;0.60;;;23.00;57.50;;;;;;4791949;29;20089;-87
2022/05/09 10:35:00;;;;;;;4.43;0.68;;;23.20;59.20;;;;;;4791887;29;20067;-85
2022/05/09 10:37:40;;;;;;;3.65;0.80;;;23.20;58.30;;;;;;4792021;29;20065;-86
2022/05/09 10:40:21;;;;;;;2.50;0.60;;;23.20;58.70;;;;;;4807749;29;20047;-87
2022/05/09 10:43:05;;;;;;;2.40;0.80;;;23.20;53.20;;;;;;4791888;29;20409;-87
2022/05/09 10:45:41;;;;;;;3.92;0.85;;;23.00;54.40;;;;;;4791328;29;20057;-86
2022/05/09 10:48:35;;;;;;;4.03;0.93;;;23.00;58.80;;;;;;4807869;29;20449;-86
2022/05/09 10:51:10;;;;;;;3.97;0.75;;;23.20;56.20;;;;;;4807887;29;20098;-86
2022/05/09 10:53:55;;;;;;;4.70;0.93;;;23.30;56.60;;;;;;4776443;29;20073;-86
2022/05/09 10:56:27;;;;;;;2.22;0.63;;;23.50;54.00;;;;;;4807982;29;20063;-86
2022/05/09 10:59:09;;;;;;;6.13;0.90;;;23.60;56.60;;;;;;4791355;29;20050;-86
2022/05/09 11:01:45;;;;;;;2.15;0.70;;;23.50;54.40;;;;;;4791340;29;20067;-85
2022/05/09 11:04:13;;;;;;;2.90;0.80;;;23.50;52.60;;;;;;4791333;29;20078;-86
2022/05/09 11:07:03;;;;;;;8.40;1.45;;;23.70;57.60;;;;;;4791032;29;20145;-86
2022/05/09 11:09:46;;;;;;;3.30;0.70;;;23.80;55.00;;;;;;4807003;29;20096;-85
2022/05/09 11:12:36;;;;;;;3.72;1.00;;;23.80;56.20;;;;;;4791545;29;20062;-86
2022/05/09 11:15:20;;;;;;;2.20;0.70;;;23.80;55.60;;;;;;4807394;29;20141;-86
2022/05/09 11:18:23;;;;;;;4.05;0.90;;;23.80;55.20;;;;;;4791162;29;20092;-85
2022/05/09 11:21:00;;;;;;;4.28;0.90;;;23.80;53.90;;;;;;4807338;29;20050;-86
2022/05/09 11:23:35;;;;;;;2.60;0.80;;;23.90;54.30;;;;;;4807245;29;20185;-86
2022/05/09 11:26:36;;;;;;;5.00;1.13;;;24.00;56.70;;;;;;4790877;29;20047;-85
2022/05/09 11:29:10;;;;;;;3.20;0.70;;;24.40;56.00;;;;;;4806973;29;20057;-85
2022/05/09 11:32:03;;;;;;;3.75;0.63;;;24.30;53.20;;;;;;4790630;29;20051;-86
2022/05/09 11:34:38;;;;;;;4.10;0.80;;;24.40;53.80;;;;;;4790913;29;20453;-85
2022/05/09 11:37:09;;;;;;;2.65;0.85;;;24.40;55.20;;;;;;4807062;29;20066;-87
2022/05/09 11:39:56;;;;;;;2.90;0.80;;;24.30;51.80;;;;;;4806884;29;20119;-87
2022/05/09 11:45:45;;;;;;;3.63;0.70;;;24.60;53.40;;;;;;4806814;29;20073;-86
2022/05/09 11:48:20;;;;;;;2.60;0.80;;;24.90;55.80;;;;;;4806801;29;20123;-86
2022/05/09 11:51:05;;;;;;;2.22;0.68;;;25.10;51.70;;;;;;4806566;29;20523;-86
2022/05/09 11:53:35;;;;;;;3.55;0.73;;;25.30;52.90;;;;;;4790590;29;20054;-86
2022/05/09 11:56:05;;;;;;;4.63;0.70;;;25.60;53.20;;;;;;4806526;29;20067;-85
2022/05/09 11:58:36;;;;;;;3.30;0.75;;;25.50;50.50;;;;;;4806482;29;20450;-85
2022/05/09 12:01:02;;;;;;;2.60;0.50;;;25.80;51.30;;;;;;4790599;29;20130;-86
2022/05/09 12:03:40;;;;;;;1.55;0.50;;;25.90;51.70;;;;;;4790652;29;20405;-85
2022/05/09 12:06:31;;;;;;;2.55;0.73;;;26.00;51.50;;;;;;4790708;29;20091;-85
2022/05/09 12:08:58;;;;;;;2.53;0.60;;;26.10;50.20;;;;;;4790208;29;20397;-86
2022/05/09 12:11:30;;;;;;;1.50;0.43;;;26.20;50.20;;;;;;4790557;29;20424;-86
2022/05/09 12:13:59;;;;;;;4.38;0.68;;;26.10;48.10;;;;;;4790249;29;20066;-86
2022/05/09 12:16:36;;;;;;;3.75;0.70;;;25.80;50.10;;;;;;4806431;29;20054;-86
2022/05/09 12:19:30;;;;;;;3.65;0.68;;;25.80;51.80;;;;;;4789629;29;20111;-87
2022/05/09 12:22:42;;;;;;;4.30;0.68;;;26.10;53.00;;;;;;4806294;29;20055;-86
2022/05/09 12:25:28;;;;;;;3.25;0.57;;;26.30;51.20;;;;;;4803667;29;20054;-85
2022/05/09 12:28:05;;;;;;;4.47;0.65;;;26.40;49.30;;;;;;4789870;29;20495;-87
2022/05/09 12:30:56;;;;;;;3.90;0.70;;;26.50;48.90;;;;;;4805871;29;20067;-87
2022/05/09 12:33:46;;;;;;;2.47;0.52;;;26.40;50.70;;;;;;4805895;29;20070;-86
2022/05/09 12:36:13;;;;;;;2.33;0.60;;;26.50;49.10;;;;;;4789720;29;20058;-86
2022/05/09 12:38:43;;;;;;;2.40;0.80;;;26.50;45.80;;;;;;4805948;29;20063;-86
2022/05/09 12:41:22;;;;;;;4.93;0.70;;;26.30;51.40;;;;;;4805817;29;20050;-86
2022/05/09 12:44:17;;;;;;;3.65;0.50;;;26.40;50.90;;;;;;4805728;29;20059;-87
2022/05/09 12:46:53;;;;;;;5.20;0.93;;;26.50;48.90;;;;;;4749937;30;20064;-86
2022/05/09 12:49:40;;;;;;;1.38;0.40;;;26.70;49.70;;;;;;4750236;30;20063;-86
2022/05/09 12:52:08;;;;;;;3.63;0.60;;;26.70;48.90;;;;;;4735338;30;20056;-86
2022/05/09 12:54:37;;;;;;;4.05;0.52;;;26.90;51.90;;;;;;4735558;30;20052;-87
2022/05/09 12:57:04;;;;;;;3.88;0.63;;;26.60;47.90;;;;;;4750033;30;20052;-87
2022/05/09 12:59:52;;;;;;;7.15;1.35;;;26.70;49.60;;;;;;4735286;30;20064;-86
2022/05/09 13:02:23;;;;;;;3.97;0.73;;;26.90;48.60;;;;;;4735313;30;20064;-87
2022/05/09 13:04:50;;;;;;;3.72;0.63;;;27.00;44.90;;;;;;4749984;30;20056;-86
2022/05/09 13:07:17;;;;;;;2.35;0.80;;;26.70;49.20;;;;;;4735100;30;20048;-86
2022/05/09 13:09:52;;;;;;;2.20;0.40;;;26.70;49.90;;;;;;4734804;30;20217;-89
2022/05/09 13:12:37;;;;;;;2.28;0.80;;;26.60;48.70;;;;;;4748988;30;20503;-87
2022/05/09 13:15:09;;;;;;;;;;;26.40;50.00;;;;;;4735903;30;20574;-87
2022/05/09 13:17:46;;;;;;;2.83;0.55;;;26.80;48.70;;;;;;4749776;30;19930;-92
2022/05/09 13:20:16;;;;;;;1.77;0.57;;;26.40;47.50;;;;;;4749313;30;20117;-86
2022/05/09 13:22:47;;;;;;;5.07;0.50;;;26.60;50.50;;;;;;4759975;29;20127;-87
2022/05/09 13:25:33;;;;;;;2.88;0.60;;;26.70;50.70;;;;;;4811916;29;20055;-89
2022/05/09 13:28:06;;;;;;;5.35;0.85;;;26.50;49.60;;;;;;4809937;29;20466;-87
2022/05/09 13:30:38;;;;;;;3.45;0.50;;;26.80;49.60;;;;;;4804724;29;20050;-86
2022/05/09 13:33:04;;;;;;;0.98;0.50;;;27.10;52.60;;;;;;4792279;29;20090;-86
2022/05/09 13:35:34;;;;;;;3.67;0.40;;;27.40;51.00;;;;;;4808823;29;20129;-86
2022/05/09 13:38:16;;;;;;;2.45;0.50;;;27.40;50.40;;;;;;4817153;29;20126;-86
2022/05/09 13:40:42;;;;;;;3.05;0.50;;;27.60;49.30;;;;;;4803940;29;20055;-86